createdAt,value
2023-10-20T00:00:22.151Z,4.43
2023-10-20T00:01:23.782Z,4.17
2023-10-20T00:02:26.668Z,3.93
2023-10-20T00:03:28.546Z,3.77
2023-10-20T00:04:31.190Z,4.13
2023-10-20T00:05:35.162Z,4.00
2023-10-20T00:06:40.294Z,4.40
2023-10-20T00:07:42.214Z,4.10
2023-10-20T00:08:45.109Z,3.70
2023-10-20T00:09:46.685Z,4.00
2023-10-20T00:10:48.226Z,3.60
2023-10-20T00:11:52.378Z,3.60
2023-10-20T00:12:54.147Z,4.00
2023-10-20T00:13:55.972Z,3.53
2023-10-20T00:14:57.801Z,4.13
2023-10-20T00:15:59.887Z,3.63
2023-10-20T00:17:01.556Z,3.57
2023-10-20T00:18:49.968Z,3.60
2023-10-20T00:19:52.280Z,4.00
2023-10-20T00:20:53.989Z,4.03
2023-10-20T00:21:56.393Z,4.47
2023-10-20T00:22:58.152Z,4.70
2023-10-20T00:24:00.335Z,4.43
2023-10-20T00:25:02.417Z,4.60
2023-10-20T00:26:04.060Z,4.30
2023-10-20T00:27:05.609Z,4.70
2023-10-20T00:28:07.548Z,4.27
2023-10-20T00:29:09.462Z,5.40
2023-10-20T00:30:11.482Z,4.13
2023-10-20T00:31:13.236Z,4.37
2023-10-20T00:32:14.859Z,4.30
2023-10-20T00:33:17.082Z,4.50
2023-10-20T00:34:18.777Z,4.03
2023-10-20T00:35:20.424Z,4.57
2023-10-20T00:36:22.087Z,4.17
2023-10-20T00:37:24.938Z,4.37
2023-10-20T00:38:26.554Z,4.17
2023-10-20T00:39:28.209Z,4.57
2023-10-20T00:40:29.927Z,4.13
2023-10-20T00:41:32.286Z,4.33
2023-10-20T00:42:33.917Z,4.57
2023-10-20T00:43:39.396Z,4.30
2023-10-20T00:44:41.137Z,4.33
2023-10-20T00:45:45.146Z,4.70
2023-10-20T00:46:46.828Z,4.70
2023-10-20T00:47:49.236Z,4.60
2023-10-20T00:48:51.041Z,4.73
2023-10-20T00:49:52.944Z,5.00
2023-10-20T00:50:54.847Z,4.23
2023-10-20T00:51:57.676Z,4.50
2023-10-20T00:52:59.422Z,4.80
2023-10-20T00:54:01.982Z,4.73
2023-10-20T00:55:04.480Z,5.33
2023-10-20T00:56:06.827Z,5.07
2023-10-20T00:57:08.646Z,4.70
2023-10-20T00:58:10.337Z,4.87
2023-10-20T00:59:12.008Z,4.97
2023-10-20T01:00:15.105Z,5.77
2023-10-20T01:01:16.878Z,5.00
2023-10-20T01:02:18.647Z,5.30
2023-10-20T01:03:21.534Z,5.40
2023-10-20T01:04:23.393Z,5.30
2023-10-20T01:05:25.265Z,5.40
2023-10-20T01:06:27.171Z,5.40
2023-10-20T01:07:28.740Z,5.27
2023-10-20T01:08:31.741Z,5.27
2023-10-20T01:09:33.403Z,5.10
2023-10-20T01:10:35.141Z,5.10
2023-10-20T01:11:38.481Z,4.87
2023-10-20T01:12:40.252Z,4.93
2023-10-20T01:13:41.821Z,5.03
2023-10-20T01:14:44.071Z,5.17
2023-10-20T01:15:47.225Z,4.90
2023-10-20T01:16:49.189Z,5.17
2023-10-20T01:17:51.101Z,4.90
2023-10-20T01:18:52.978Z,5.33
2023-10-20T01:19:55.329Z,4.90
2023-10-20T01:20:57.042Z,5.70
2023-10-20T01:21:58.795Z,5.50
2023-10-20T01:23:00.708Z,5.57
2023-10-20T01:24:03.920Z,5.30
2023-10-20T01:25:05.674Z,5.27
2023-10-20T01:26:07.299Z,5.50
2023-10-20T01:27:09.840Z,5.00
2023-10-20T01:28:11.537Z,5.00
2023-10-20T01:29:13.578Z,5.10
2023-10-20T01:30:15.283Z,4.90
2023-10-20T01:31:16.891Z,4.87
2023-10-20T01:32:18.621Z,5.07
2023-10-20T01:33:20.560Z,5.27
2023-10-20T01:34:22.216Z,5.60
2023-10-20T01:35:23.913Z,5.17
2023-10-20T01:36:25.518Z,5.13
2023-10-20T01:37:27.216Z,5.47
2023-10-20T01:38:28.818Z,5.40
2023-10-20T01:39:30.523Z,5.30
2023-10-20T01:40:32.206Z,5.33
2023-10-20T01:41:34.225Z,5.70
2023-10-20T01:42:35.838Z,5.80
2023-10-20T01:43:37.652Z,5.33
2023-10-20T01:44:39.426Z,5.90
2023-10-20T01:45:41.116Z,6.23
2023-10-20T01:46:50.875Z,5.93
2023-10-20T01:47:52.796Z,5.93
2023-10-20T01:48:54.440Z,6.07
2023-10-20T01:49:56.438Z,5.83
2023-10-20T01:51:01.130Z,6.13
2023-10-20T01:52:03.149Z,6.67
2023-10-20T01:53:05.551Z,6.23
2023-10-20T01:54:07.619Z,6.20
2023-10-20T01:55:09.643Z,6.03
2023-10-20T01:56:11.681Z,5.63
2023-10-20T01:57:13.262Z,6.00
2023-10-20T01:58:15.295Z,5.40
2023-10-20T01:59:17.381Z,6.67
2023-10-20T02:00:19.136Z,5.90
2023-10-20T02:01:24.282Z,6.30
2023-10-20T02:02:26.094Z,6.03
2023-10-20T02:03:28.110Z,5.73
2023-10-20T02:04:30.263Z,6.17
2023-10-20T02:05:31.980Z,5.80
2023-10-20T02:06:33.654Z,5.80
2023-10-20T02:07:36.117Z,5.70
2023-10-20T02:08:40.710Z,5.43
2023-10-20T02:09:42.528Z,5.50
2023-10-20T02:10:45.321Z,5.57
2023-10-20T02:11:47.321Z,5.30
2023-10-20T02:12:48.960Z,5.50
2023-10-20T02:13:50.629Z,5.70
2023-10-20T02:14:52.228Z,5.50
2023-10-20T02:15:54.141Z,5.23
2023-10-20T02:16:55.810Z,5.37
2023-10-20T02:18:00.666Z,5.60
2023-10-20T02:19:02.513Z,4.90
2023-10-20T02:20:04.865Z,5.23
2023-10-20T02:21:09.020Z,4.67
2023-10-20T02:22:10.617Z,4.40
2023-10-20T02:23:12.845Z,5.17
2023-10-20T02:24:15.262Z,4.77
2023-10-20T02:25:17.813Z,4.90
2023-10-20T02:26:20.393Z,5.07
2023-10-20T02:27:22.019Z,4.93
2023-10-20T02:28:23.632Z,4.67
2023-10-20T02:29:25.257Z,4.90
2023-10-20T02:30:26.797Z,5.00
2023-10-20T02:31:28.548Z,4.20
2023-10-20T02:32:30.235Z,4.60
2023-10-20T02:33:31.899Z,4.13
2023-10-20T02:34:33.682Z,4.77
2023-10-20T02:35:35.500Z,4.60
2023-10-20T02:36:37.176Z,4.97
2023-10-20T02:37:38.870Z,4.57
2023-10-20T02:38:40.549Z,5.00
2023-10-20T02:39:42.276Z,4.40
2023-10-20T02:40:54.023Z,4.77
2023-10-20T02:41:56.057Z,4.97
2023-10-20T02:42:57.717Z,4.83
2023-10-20T02:44:00.209Z,4.50
2023-10-20T02:45:02.052Z,4.70
2023-10-20T02:46:03.820Z,4.57
2023-10-20T02:47:05.727Z,5.00
2023-10-20T02:48:07.811Z,4.40
2023-10-20T02:49:09.382Z,4.67
2023-10-20T02:50:11.895Z,4.80
2023-10-20T02:51:16.181Z,4.63
2023-10-20T02:52:17.891Z,4.70
2023-10-20T02:53:19.660Z,4.80
2023-10-20T02:54:21.365Z,5.13
2023-10-20T02:55:23.031Z,4.67
2023-10-20T02:56:24.812Z,4.80
2023-10-20T02:57:26.471Z,5.10
2023-10-20T02:58:28.083Z,4.23
2023-10-20T02:59:29.734Z,5.00
2023-10-20T03:00:31.473Z,5.00
2023-10-20T03:01:33.214Z,5.13
2023-10-20T03:02:34.986Z,5.00
2023-10-20T03:03:37.856Z,4.70
2023-10-20T03:04:39.924Z,4.50
2023-10-20T03:05:46.773Z,4.70
2023-10-20T03:06:49.234Z,5.00
2023-10-20T03:07:50.920Z,5.20
2023-10-20T03:08:52.520Z,5.00
2023-10-20T03:09:55.344Z,4.37
2023-10-20T03:10:58.149Z,4.97
2023-10-20T03:11:59.813Z,4.70
2023-10-20T03:13:01.422Z,4.70
2023-10-20T03:14:04.145Z,4.77
2023-10-20T03:15:08.546Z,4.87
2023-10-20T03:16:10.319Z,4.43
2023-10-20T03:17:12.525Z,4.77
2023-10-20T03:18:15.926Z,5.10
2023-10-20T03:19:17.703Z,4.97
2023-10-20T03:20:25.709Z,4.60
2023-10-20T03:21:27.323Z,4.87
2023-10-20T03:22:30.434Z,4.27
2023-10-20T03:23:32.285Z,4.00
2023-10-20T03:24:34.254Z,4.73
2023-10-20T03:25:36.243Z,4.90
2023-10-20T03:26:38.046Z,4.30
2023-10-20T03:27:39.970Z,4.80
2023-10-20T03:28:42.143Z,4.83
2023-10-20T03:29:44.261Z,4.50
2023-10-20T03:30:48.151Z,5.30
2023-10-20T03:31:50.920Z,4.37
2023-10-20T03:32:52.631Z,4.33
2023-10-20T03:33:54.259Z,4.60
2023-10-20T03:34:55.939Z,5.33
2023-10-20T03:36:04.922Z,4.53
2023-10-20T03:37:06.585Z,5.10
2023-10-20T03:38:08.632Z,4.90
2023-10-20T03:39:36.569Z,4.93
2023-10-20T03:40:42.316Z,4.50
2023-10-20T03:41:44.215Z,4.87
2023-10-20T03:42:45.998Z,5.17
2023-10-20T03:43:47.617Z,4.80
2023-10-20T03:44:49.403Z,5.33
2023-10-20T03:45:53.164Z,4.93
2023-10-20T03:46:58.333Z,4.80
2023-10-20T03:48:00.163Z,4.57
2023-10-20T03:49:05.586Z,4.73
2023-10-20T03:50:17.728Z,4.87
2023-10-20T03:51:19.437Z,4.53
2023-10-20T03:52:21.910Z,5.03
2023-10-20T03:53:24.088Z,4.97
2023-10-20T03:54:26.580Z,4.93
2023-10-20T03:55:28.176Z,4.90
2023-10-20T03:56:29.927Z,5.00
2023-10-20T03:57:32.021Z,5.10
2023-10-20T03:58:34.572Z,5.30
2023-10-20T03:59:36.382Z,4.83
2023-10-20T04:00:43.104Z,5.03
2023-10-20T04:01:45.578Z,4.67
2023-10-20T04:02:48.096Z,4.40
2023-10-20T04:03:53.062Z,4.93
2023-10-20T04:04:54.915Z,4.70
2023-10-20T04:05:56.577Z,4.87
2023-10-20T04:06:58.215Z,5.07
2023-10-20T04:07:59.883Z,4.40
2023-10-20T04:09:02.414Z,4.77
2023-10-20T04:10:04.333Z,5.00
2023-10-20T04:11:05.979Z,4.53
2023-10-20T04:12:08.316Z,4.73
2023-10-20T04:13:11.007Z,4.60
2023-10-20T04:14:13.589Z,4.30
2023-10-20T04:15:20.860Z,4.93
2023-10-20T04:16:24.630Z,4.97
2023-10-20T04:17:26.487Z,4.90
2023-10-20T04:18:33.554Z,4.80
2023-10-20T04:19:36.369Z,4.70
2023-10-20T04:20:41.243Z,4.60
2023-10-20T04:21:44.592Z,5.53
2023-10-20T04:22:50.504Z,4.67
2023-10-20T04:23:52.108Z,5.07
2023-10-20T04:24:54.919Z,4.37
2023-10-20T04:25:56.619Z,4.77
2023-10-20T04:26:58.437Z,5.13
2023-10-20T04:28:13.415Z,4.73
2023-10-20T04:29:15.099Z,5.07
2023-10-20T04:30:36.364Z,4.80
2023-10-20T04:31:56.281Z,5.43
2023-10-20T04:33:16.360Z,5.27
2023-10-20T04:34:50.082Z,5.00
2023-10-20T04:36:10.940Z,5.13
2023-10-20T04:37:31.563Z,5.03
2023-10-20T04:38:51.774Z,4.87
2023-10-20T04:40:11.889Z,5.30
2023-10-20T04:41:32.201Z,5.37
2023-10-20T04:42:37.455Z,5.07
2023-10-20T04:43:43.850Z,5.20
2023-10-20T04:45:03.899Z,5.20
2023-10-20T04:46:28.374Z,5.17
2023-10-20T04:47:48.653Z,4.60
2023-10-20T04:49:22.392Z,4.73
2023-10-20T04:50:42.322Z,4.47
2023-10-20T04:52:06.429Z,5.27
2023-10-20T04:53:34.146Z,5.63
2023-10-20T04:54:54.424Z,4.63
2023-10-20T04:56:14.335Z,4.20
2023-10-20T04:57:21.673Z,5.07
2023-10-20T04:58:36.216Z,5.03
2023-10-20T04:59:38.201Z,4.63
2023-10-20T05:00:42.520Z,4.23
2023-10-20T05:01:49.223Z,4.47
2023-10-20T05:02:52.759Z,5.07
2023-10-20T05:03:58.964Z,4.63
2023-10-20T05:05:02.758Z,4.67
2023-10-20T05:06:24.919Z,4.83
2023-10-20T05:07:28.628Z,4.63
2023-10-20T05:08:30.358Z,4.97
2023-10-20T05:09:33.958Z,4.57
2023-10-20T05:10:35.658Z,5.53
2023-10-20T05:11:37.237Z,4.70
2023-10-20T05:12:38.813Z,5.20
2023-10-20T05:13:40.417Z,4.83
2023-10-20T05:14:42.196Z,4.97
2023-10-20T05:15:44.923Z,4.80
2023-10-20T05:16:46.602Z,4.37
2023-10-20T05:17:48.294Z,4.73
2023-10-20T05:18:50.081Z,4.00
2023-10-20T05:19:54.893Z,5.00
2023-10-20T05:20:56.899Z,4.53
2023-10-20T05:21:58.452Z,5.30
2023-10-20T05:23:00.294Z,5.70
2023-10-20T05:24:06.640Z,4.47
2023-10-20T05:25:12.908Z,4.87
2023-10-20T05:26:14.712Z,5.27
2023-10-20T05:27:16.355Z,4.40
2023-10-20T05:28:18.281Z,4.63
2023-10-20T05:29:19.937Z,4.27
2023-10-20T05:30:21.659Z,5.03
2023-10-20T05:31:26.116Z,5.10
2023-10-20T05:32:29.293Z,5.20
2023-10-20T05:33:31.051Z,5.00
2023-10-20T05:34:33.010Z,4.47
2023-10-20T05:35:35.069Z,4.40
2023-10-20T05:36:37.025Z,4.80
2023-10-20T05:37:38.610Z,4.80
2023-10-20T05:38:40.354Z,4.70
2023-10-20T05:39:42.593Z,4.60
2023-10-20T05:40:45.086Z,4.90
2023-10-20T05:41:47.856Z,4.87
2023-10-20T05:42:50.007Z,4.73
2023-10-20T05:43:53.988Z,4.70
2023-10-20T05:45:10.908Z,4.60
2023-10-20T05:46:18.791Z,4.40
2023-10-20T05:47:21.616Z,4.43
2023-10-20T05:48:23.330Z,3.90
2023-10-20T05:49:25.078Z,4.27
2023-10-20T05:50:26.803Z,4.47
2023-10-20T05:51:28.617Z,4.50
2023-10-20T05:52:30.445Z,4.40
2023-10-20T05:53:32.110Z,4.47
2023-10-20T05:54:33.888Z,4.30
2023-10-20T05:55:35.802Z,4.90
2023-10-20T05:56:37.480Z,4.30
2023-10-20T05:57:39.115Z,4.80
2023-10-20T05:58:41.416Z,4.27
2023-10-20T05:59:43.086Z,4.40
2023-10-20T06:01:01.604Z,4.57
2023-10-20T06:02:04.592Z,4.40
2023-10-20T06:03:07.106Z,4.57
2023-10-20T06:04:09.406Z,4.80
2023-10-20T06:05:11.120Z,3.97
2023-10-20T06:06:12.881Z,4.27
2023-10-20T06:07:14.445Z,4.10
2023-10-20T06:08:16.157Z,3.77
2023-10-20T06:09:17.883Z,4.67
2023-10-20T06:10:25.426Z,5.00
2023-10-20T06:11:27.085Z,4.63
2023-10-20T06:12:28.750Z,4.20
2023-10-20T06:13:35.709Z,4.43
2023-10-20T06:14:39.814Z,4.10
2023-10-20T06:15:41.460Z,4.80
2023-10-20T06:16:43.572Z,4.40
2023-10-20T06:17:45.764Z,4.53
2023-10-20T06:18:47.500Z,4.20
2023-10-20T06:19:49.088Z,4.17
2023-10-20T06:20:50.718Z,3.70
2023-10-20T06:21:52.382Z,4.70
2023-10-20T06:22:54.006Z,4.30
2023-10-20T06:23:55.714Z,4.30
2023-10-20T06:24:57.271Z,3.83
2023-10-20T06:25:59.665Z,4.30
2023-10-20T06:27:03.966Z,4.40
2023-10-20T06:28:07.322Z,4.00
2023-10-20T06:29:35.433Z,4.03
2023-10-20T06:30:44.141Z,4.00
2023-10-20T06:31:48.512Z,4.13
2023-10-20T06:32:57.653Z,3.67
2023-10-20T06:34:02.327Z,4.00
2023-10-20T06:35:04.307Z,3.80
2023-10-20T06:36:12.246Z,4.10
2023-10-20T06:37:20.611Z,4.67
2023-10-20T06:38:38.008Z,4.27
2023-10-20T06:39:39.922Z,4.07
2023-10-20T06:40:41.821Z,4.00
2023-10-20T06:41:43.433Z,3.87
2023-10-20T06:42:46.073Z,3.80
2023-10-20T06:43:48.778Z,4.30
2023-10-20T06:44:50.694Z,3.83
2023-10-20T06:46:00.682Z,4.00
2023-10-20T06:47:02.661Z,3.40
2023-10-20T06:48:04.686Z,3.83
2023-10-20T06:49:08.250Z,3.80
2023-10-20T06:50:12.396Z,3.87
2023-10-20T06:51:14.075Z,4.13
2023-10-20T06:52:18.885Z,3.95
2023-10-20T06:53:20.595Z,4.38
2023-10-20T06:54:22.274Z,4.13
2023-10-20T06:55:54.297Z,3.72
2023-10-20T06:56:46.246Z,3.90
2023-10-20T06:57:48.077Z,3.70
2023-10-20T06:58:49.715Z,3.95
2023-10-20T06:59:51.462Z,3.40
2023-10-20T07:00:54.746Z,3.83
2023-10-20T07:02:01.545Z,3.38
2023-10-20T07:03:03.555Z,4.05
2023-10-20T07:04:07.588Z,3.58
2023-10-20T07:05:09.288Z,4.30
2023-10-20T07:06:12.794Z,4.43
2023-10-20T07:07:15.280Z,3.88
2023-10-20T07:08:16.907Z,3.92
2023-10-20T07:09:18.610Z,3.65
2023-10-20T07:10:23.186Z,3.88
2023-10-20T07:11:25.728Z,3.40
2023-10-20T07:12:28.509Z,3.30
2023-10-20T07:13:30.115Z,3.65
2023-10-20T07:14:32.661Z,3.50
2023-10-20T07:15:38.352Z,3.70
2023-10-20T07:16:39.941Z,3.67
2023-10-20T07:17:41.602Z,3.58
2023-10-20T07:18:43.849Z,3.85
2023-10-20T07:19:45.462Z,3.88
2023-10-20T07:20:47.116Z,3.55
2023-10-20T07:21:50.673Z,3.60
2023-10-20T07:22:53.106Z,3.50
2023-10-20T07:23:54.898Z,4.05
2023-10-20T07:24:57.062Z,3.20
2023-10-20T07:25:59.095Z,3.53
2023-10-20T07:27:02.934Z,4.00
2023-10-20T07:28:04.768Z,3.60
2023-10-20T07:29:06.421Z,4.10
2023-10-20T07:30:11.851Z,3.78
2023-10-20T07:31:14.502Z,3.28
2023-10-20T07:32:17.752Z,3.70
2023-10-20T07:33:19.717Z,3.42
2023-10-20T07:34:22.331Z,3.50
2023-10-20T07:35:24.113Z,3.35
2023-10-20T07:36:26.733Z,3.58
2023-10-20T07:37:28.403Z,3.35
2023-10-20T07:38:30.107Z,4.10
2023-10-20T07:39:31.929Z,3.60
2023-10-20T07:40:36.262Z,3.35
2023-10-20T07:41:38.143Z,3.85
2023-10-20T07:42:41.301Z,3.58
2023-10-20T07:43:43.592Z,3.90
2023-10-20T07:44:45.300Z,3.78
2023-10-20T07:45:47.931Z,4.07
2023-10-20T07:46:49.589Z,4.00
2023-10-20T07:47:51.293Z,3.83
2023-10-20T07:48:53.057Z,3.35
2023-10-20T07:49:58.969Z,3.67
2023-10-20T07:51:01.088Z,3.33
2023-10-20T07:52:04.214Z,3.08
2023-10-20T07:53:06.581Z,3.47
2023-10-20T07:54:10.170Z,3.45
2023-10-20T07:55:11.727Z,3.83
2023-10-20T07:56:13.450Z,3.05
2023-10-20T07:57:16.799Z,3.58
2023-10-20T07:58:18.836Z,3.60
2023-10-20T07:59:20.432Z,3.88
2023-10-20T08:00:22.615Z,3.58
2023-10-20T08:01:24.940Z,3.40
2023-10-20T08:02:26.622Z,3.33
2023-10-20T08:03:28.943Z,3.60
2023-10-20T08:04:31.160Z,3.25
2023-10-20T08:05:37.165Z,3.40
2023-10-20T08:06:39.812Z,3.63
2023-10-20T08:07:43.405Z,4.07
2023-10-20T08:08:45.842Z,3.55
2023-10-20T08:09:48.310Z,3.38
2023-10-20T08:10:50.765Z,3.60
2023-10-20T08:11:53.241Z,3.80
2023-10-20T08:12:55.736Z,3.60
2023-10-20T08:13:59.179Z,3.15
2023-10-20T08:15:00.885Z,3.42
2023-10-20T08:16:04.722Z,3.33
2023-10-20T08:17:08.914Z,3.60
2023-10-20T08:18:11.868Z,4.05
2023-10-20T08:19:14.292Z,3.58
2023-10-20T08:20:15.952Z,3.42
2023-10-20T08:21:17.647Z,4.03
2023-10-20T08:22:21.775Z,3.55
2023-10-20T08:23:23.694Z,3.50
2023-10-20T08:24:27.129Z,3.30
2023-10-20T08:25:28.717Z,3.78
2023-10-20T08:26:32.960Z,3.63
2023-10-20T08:27:34.663Z,3.88
2023-10-20T08:28:39.336Z,3.50
2023-10-20T08:29:41.178Z,3.53
2023-10-20T08:30:42.921Z,3.22
2023-10-20T08:31:44.626Z,3.38
2023-10-20T08:32:46.363Z,3.92
2023-10-20T08:33:49.728Z,3.38
2023-10-20T08:34:52.020Z,3.60
2023-10-20T08:35:53.631Z,3.78
2023-10-20T08:36:55.337Z,3.75
2023-10-20T08:37:57.260Z,3.65
2023-10-20T08:39:04.646Z,3.70
2023-10-20T08:40:11.815Z,3.28
2023-10-20T08:41:15.247Z,3.55
2023-10-20T08:42:18.411Z,3.75
2023-10-20T08:43:20.020Z,3.60
2023-10-20T08:44:21.994Z,3.72
2023-10-20T08:45:25.057Z,3.42
2023-10-20T08:46:27.391Z,3.35
2023-10-20T08:47:30.852Z,4.03
2023-10-20T08:48:32.871Z,3.70
2023-10-20T08:49:34.792Z,3.88
2023-10-20T08:50:38.091Z,3.95
2023-10-20T08:51:39.874Z,3.70
2023-10-20T08:52:42.441Z,3.47
2023-10-20T08:53:45.932Z,3.90
2023-10-20T08:54:49.518Z,3.92
2023-10-20T08:55:51.164Z,3.25
2023-10-20T08:56:53.461Z,3.70
2023-10-20T08:57:55.652Z,3.63
2023-10-20T08:58:57.255Z,3.25
2023-10-20T08:59:58.882Z,3.65
2023-10-20T09:01:01.266Z,3.70
2023-10-20T09:02:04.046Z,4.07
2023-10-20T09:03:06.414Z,3.40
2023-10-20T09:04:08.344Z,4.00
2023-10-20T09:05:10.261Z,3.20
2023-10-20T09:06:15.751Z,3.90
2023-10-20T09:07:17.988Z,3.33
2023-10-20T09:08:19.859Z,4.00
2023-10-20T09:09:21.749Z,3.53
2023-10-20T09:10:24.479Z,3.40
2023-10-20T09:11:31.766Z,3.60
2023-10-20T09:12:33.711Z,3.63
2023-10-20T09:13:38.841Z,3.80
2023-10-20T09:14:41.271Z,3.88
2023-10-20T09:15:43.248Z,3.63
2023-10-20T09:16:45.472Z,3.85
2023-10-20T09:17:54.610Z,3.80
2023-10-20T09:18:56.474Z,3.72
2023-10-20T09:20:13.443Z,3.42
2023-10-20T09:21:16.346Z,3.50
2023-10-20T09:22:29.989Z,4.05
2023-10-20T09:23:33.561Z,3.65
2023-10-20T09:24:36.140Z,3.40
2023-10-20T09:25:37.998Z,3.85
2023-10-20T09:26:40.699Z,3.33
2023-10-20T09:27:42.991Z,3.45
2023-10-20T09:28:52.323Z,3.70
2023-10-20T09:29:56.184Z,3.60
2023-10-20T09:31:00.361Z,3.25
2023-10-20T09:32:06.250Z,3.50
2023-10-20T09:33:08.056Z,3.58
2023-10-20T09:34:10.467Z,3.90
2023-10-20T09:35:12.261Z,4.03
2023-10-20T09:36:14.571Z,3.13
2023-10-20T09:37:20.141Z,3.25
2023-10-20T09:38:28.276Z,3.85
2023-10-20T09:39:39.825Z,3.53
2023-10-20T09:40:43.111Z,3.35
2023-10-20T09:41:49.768Z,3.50
2023-10-20T09:43:25.090Z,3.67
2023-10-20T09:44:40.438Z,3.17
2023-10-20T09:45:45.049Z,3.83
2023-10-20T09:46:47.508Z,3.47
2023-10-20T09:47:53.399Z,3.80
2023-10-20T09:49:00.705Z,3.90
2023-10-20T09:50:02.880Z,3.78
2023-10-20T09:51:06.033Z,3.10
2023-10-20T09:52:07.608Z,3.40
2023-10-20T09:53:10.366Z,3.88
2023-10-20T09:54:14.094Z,3.95
2023-10-20T09:55:16.259Z,3.70
2023-10-20T09:56:19.416Z,3.65
2023-10-20T09:57:21.947Z,3.67
2023-10-20T09:58:27.532Z,3.90
2023-10-20T09:59:29.855Z,3.17
2023-10-20T10:00:33.155Z,3.15
2023-10-20T10:01:35.041Z,3.50
2023-10-20T10:02:36.935Z,3.30
2023-10-20T10:03:42.267Z,3.05
2023-10-20T10:04:46.274Z,3.33
2023-10-20T10:05:48.194Z,3.95
2023-10-20T10:06:50.008Z,3.40
2023-10-20T10:08:05.573Z,3.72
2023-10-20T10:09:16.675Z,3.53
2023-10-20T10:10:21.995Z,3.58
2023-10-20T10:11:28.290Z,3.67
2023-10-20T10:12:30.876Z,3.80
2023-10-20T10:13:36.395Z,3.42
2023-10-20T10:14:38.977Z,3.17
2023-10-20T10:15:47.888Z,3.72
2023-10-20T10:16:59.828Z,3.80
2023-10-20T10:18:10.127Z,3.30
2023-10-20T10:19:17.415Z,3.97
2023-10-20T10:20:21.191Z,3.28
2023-10-20T10:21:30.842Z,3.42
2023-10-20T10:22:32.501Z,3.88
2023-10-20T10:23:34.793Z,3.75
2023-10-20T10:24:41.077Z,3.67
2023-10-20T10:25:44.404Z,3.17
2023-10-20T10:26:54.599Z,3.85
2023-10-20T10:27:56.370Z,3.60
2023-10-20T10:28:58.068Z,3.20
2023-10-20T10:30:07.124Z,3.30
2023-10-20T10:31:11.063Z,3.70
2023-10-20T10:32:20.442Z,3.80
2023-10-20T10:33:24.449Z,3.83
2023-10-20T10:34:26.654Z,3.92
2023-10-20T10:35:30.330Z,3.50
2023-10-20T10:36:46.106Z,3.25
2023-10-20T10:37:48.806Z,3.10
2023-10-20T10:38:50.485Z,3.50
2023-10-20T10:39:52.215Z,3.10
2023-10-20T10:40:55.478Z,3.45
2023-10-20T10:42:04.799Z,3.50
2023-10-20T10:43:06.392Z,2.90
2023-10-20T10:44:09.492Z,3.67
2023-10-20T10:45:30.397Z,3.20
2023-10-20T10:46:36.776Z,3.20
2023-10-20T10:47:38.644Z,3.28
2023-10-20T10:48:40.947Z,3.03
2023-10-20T10:49:48.398Z,3.80
2023-10-20T10:50:50.200Z,3.42
2023-10-20T10:51:53.745Z,3.22
2023-10-20T10:52:55.307Z,2.83
2023-10-20T10:53:56.918Z,3.00
2023-10-20T10:54:59.314Z,3.25
2023-10-20T10:56:00.939Z,3.10
2023-10-20T10:57:04.762Z,3.28
2023-10-20T10:58:11.881Z,2.92
2023-10-20T10:59:13.503Z,3.15
2023-10-20T11:00:17.419Z,4.10
2023-10-20T11:01:19.441Z,3.97
2023-10-20T11:02:21.626Z,3.53
2023-10-20T11:03:26.191Z,3.42
2023-10-20T11:04:29.418Z,3.33
2023-10-20T11:05:33.207Z,3.22
2023-10-20T11:06:38.331Z,3.30
2023-10-20T11:07:40.251Z,2.75
2023-10-20T11:08:45.979Z,3.13
2023-10-20T11:09:48.988Z,3.28
2023-10-20T11:10:51.495Z,3.38
2023-10-20T11:11:53.246Z,2.88
2023-10-20T11:12:58.745Z,3.10
2023-10-20T11:14:00.485Z,2.88
2023-10-20T11:15:07.403Z,3.38
2023-10-20T11:16:09.045Z,3.33
2023-10-20T11:17:10.701Z,3.38
2023-10-20T11:18:12.853Z,3.67
2023-10-20T11:19:15.393Z,3.35
2023-10-20T11:20:20.434Z,3.65
2023-10-20T11:21:22.154Z,3.35
2023-10-20T11:22:23.773Z,3.03
2023-10-20T11:23:35.667Z,3.33
2023-10-20T11:24:38.371Z,3.17
2023-10-20T11:25:41.967Z,3.25
2023-10-20T11:26:43.694Z,3.28
2023-10-20T11:27:48.702Z,2.80
2023-10-20T11:28:51.202Z,3.17
2023-10-20T11:29:59.005Z,3.33
2023-10-20T11:31:01.309Z,2.75
2023-10-20T11:32:08.822Z,3.72
2023-10-20T11:33:16.036Z,2.90
2023-10-20T11:34:18.420Z,3.03
2023-10-20T11:35:22.904Z,3.33
2023-10-20T11:36:24.510Z,2.67
2023-10-20T11:37:26.241Z,2.95
2023-10-20T11:38:31.020Z,2.85
2023-10-20T11:39:35.501Z,3.38
2023-10-20T11:40:37.098Z,3.15
2023-10-20T11:41:38.881Z,3.05
2023-10-20T11:42:40.588Z,3.45
2023-10-20T11:43:42.217Z,3.15
2023-10-20T11:44:43.876Z,3.00
2023-10-20T11:45:46.548Z,3.08
2023-10-20T11:46:48.258Z,3.70
2023-10-20T11:47:50.002Z,3.75
2023-10-20T11:48:51.750Z,2.80
2023-10-20T11:49:55.965Z,3.17
2023-10-20T11:50:57.622Z,2.90
2023-10-20T11:51:59.273Z,3.63
2023-10-20T11:53:01.603Z,3.25
2023-10-20T11:54:03.340Z,3.38
2023-10-20T11:55:05.394Z,3.30
2023-10-20T11:56:07.162Z,3.45
2023-10-20T11:57:10.267Z,3.08
2023-10-20T11:58:11.978Z,3.45
2023-10-20T11:59:13.550Z,2.38
2023-10-20T12:00:15.453Z,3.10
2023-10-20T12:01:17.089Z,3.47
2023-10-20T12:02:18.804Z,3.85
2023-10-20T12:03:21.357Z,3.47
2023-10-20T12:04:23.144Z,3.40
2023-10-20T12:05:24.880Z,2.92
2023-10-20T12:06:27.034Z,3.00
2023-10-20T12:07:29.000Z,2.78
2023-10-20T12:08:33.554Z,3.10
2023-10-20T12:09:35.252Z,3.67
2023-10-20T12:10:39.587Z,3.30
2023-10-20T12:11:41.314Z,3.42
2023-10-20T12:12:43.007Z,3.40
2023-10-20T12:13:49.031Z,3.50
2023-10-20T12:14:50.684Z,3.13
2023-10-20T12:15:52.379Z,2.95
2023-10-20T12:16:55.093Z,3.13
2023-10-20T12:17:57.346Z,3.15
2023-10-20T12:19:03.092Z,3.30
2023-10-20T12:20:06.178Z,2.42
2023-10-20T12:21:09.115Z,3.08
2023-10-20T12:22:11.055Z,3.15
2023-10-20T12:23:12.688Z,2.70
2023-10-20T12:24:14.366Z,2.80
2023-10-20T12:25:15.967Z,3.17
2023-10-20T12:26:17.648Z,2.60
2023-10-20T12:27:20.582Z,3.47
2023-10-20T12:28:22.296Z,3.22
2023-10-20T12:29:24.085Z,3.33
2023-10-20T12:30:27.735Z,3.20
2023-10-20T12:31:32.351Z,3.67
2023-10-20T12:32:34.202Z,3.10
2023-10-20T12:33:36.033Z,3.05
2023-10-20T12:34:37.827Z,2.65
2023-10-20T12:35:39.490Z,3.22
2023-10-20T12:36:42.658Z,3.22
2023-10-20T12:37:44.369Z,2.80
2023-10-20T12:38:46.283Z,3.15
2023-10-20T12:39:48.028Z,3.60
2023-10-20T12:40:52.605Z,2.60
2023-10-20T12:41:55.965Z,3.20
2023-10-20T12:42:57.738Z,3.22
2023-10-20T12:43:59.330Z,2.83
2023-10-20T12:45:05.687Z,3.22
2023-10-20T12:46:08.226Z,2.58
2023-10-20T12:47:10.040Z,3.38
2023-10-20T12:48:11.884Z,3.25
2023-10-20T12:49:15.266Z,2.85
2023-10-20T12:50:17.106Z,2.58
2023-10-20T12:51:18.740Z,3.53
2023-10-20T12:52:21.562Z,3.10
2023-10-20T12:53:23.252Z,3.15
2023-10-20T12:54:24.898Z,3.00
2023-10-20T12:55:31.697Z,2.80
2023-10-20T12:56:33.491Z,3.15
2023-10-20T12:57:35.175Z,3.22
2023-10-20T12:58:36.988Z,3.58
2023-10-20T12:59:38.774Z,2.92
2023-10-20T13:00:41.263Z,3.40
2023-10-20T13:01:42.881Z,2.70
2023-10-20T13:02:44.801Z,2.85
2023-10-20T13:03:46.940Z,3.38
2023-10-20T13:04:48.549Z,3.00
2023-10-20T13:05:50.284Z,3.85
2023-10-20T13:06:59.937Z,2.75
2023-10-20T13:08:03.081Z,3.38
2023-10-20T13:09:09.180Z,2.92
2023-10-20T13:10:11.353Z,3.25
2023-10-20T13:11:14.163Z,3.35
2023-10-20T13:12:15.824Z,3.10
2023-10-20T13:13:20.266Z,2.85
2023-10-20T13:14:22.037Z,4.30
2023-10-20T13:15:26.052Z,2.90
2023-10-20T13:16:27.756Z,3.90
2023-10-20T13:17:29.671Z,3.25
2023-10-20T13:18:32.142Z,3.00
2023-10-20T13:19:36.047Z,3.10
2023-10-20T13:20:37.707Z,3.10
2023-10-20T13:21:39.373Z,2.90
2023-10-20T13:22:41.565Z,2.63
2023-10-20T13:23:43.160Z,3.33
2023-10-20T13:24:45.895Z,2.85
2023-10-20T13:25:47.514Z,3.25
2023-10-20T13:26:49.250Z,3.20
2023-10-20T13:27:51.163Z,3.13
2023-10-20T13:28:52.836Z,2.90
2023-10-20T13:29:54.490Z,2.58
2023-10-20T13:32:09.451Z,3.33
2023-10-20T13:33:11.847Z,3.10
2023-10-20T13:34:13.539Z,2.85
2023-10-20T13:35:17.513Z,3.42
2023-10-20T13:36:19.627Z,2.83
2023-10-20T13:37:21.406Z,3.47
2023-10-20T13:38:32.764Z,2.95
2023-10-20T13:39:34.740Z,3.13
2023-10-20T13:40:36.447Z,3.42
2023-10-20T13:41:38.133Z,3.42
2023-10-20T13:42:40.296Z,3.55
2023-10-20T13:43:43.172Z,3.10
2023-10-20T13:44:44.832Z,3.67
2023-10-20T13:45:46.517Z,3.53
2023-10-20T13:46:48.398Z,3.50
2023-10-20T13:47:50.077Z,3.47
2023-10-20T13:48:51.715Z,3.47
2023-10-20T13:49:53.452Z,3.53
2023-10-20T13:50:56.030Z,2.60
2023-10-20T13:51:57.874Z,3.10
2023-10-20T13:52:59.829Z,3.72
2023-10-20T13:54:01.477Z,3.30
2023-10-20T13:55:03.119Z,3.03
2023-10-20T13:56:04.777Z,3.60
2023-10-20T13:57:06.437Z,3.25
2023-10-20T13:58:08.346Z,3.30
2023-10-20T13:59:10.534Z,3.45
2023-10-20T14:00:15.450Z,3.55
2023-10-20T14:01:17.151Z,2.92
2023-10-20T14:02:19.388Z,3.33
2023-10-20T14:03:22.882Z,3.28
2023-10-20T14:04:25.179Z,3.28
2023-10-20T14:05:29.121Z,3.35
2023-10-20T14:06:30.784Z,3.75
2023-10-20T14:07:32.731Z,3.05
2023-10-20T14:08:35.398Z,3.90